Time;durP1;ratioP1;P1;durP2;ratioP2;P2;SDS_P1;SDS_P2;PMS_P1;PMS_P2;Temp;Humidity;BMP_temperature;BMP_pressure;BME280_temperature;BME280_humidity;BME280_pressure;Samples;Min_cycle;Max_cycle;Signal;HPM_P1;HPM_P2
2021/01/27 00:02:11;;;;;;;43.73;25.60;;;;;;;1.81;nan;100309.47;5081930;28;20480;-64
2021/01/27 00:04:37;;;;;;;37.80;25.20;;;;;;;1.82;nan;100311.19;5082671;28;20487;-64
2021/01/27 00:07:03;;;;;;;39.60;25.30;;;;;;;1.77;nan;100302.69;5082225;28;20491;-64
2021/01/27 00:09:30;;;;;;;36.07;23.87;;;;;;;1.74;nan;100294.09;5083380;28;20515;-63
2021/01/27 00:11:56;;;;;;;40.53;25.70;;;;;;;1.69;nan;100289.06;5070735;28;20515;-64
2021/01/27 00:14:22;;;;;;;38.93;24.40;;;;;;;1.67;nan;100285.66;5063548;28;20514;-64
2021/01/27 00:16:49;;;;;;;39.63;23.77;;;;;;;1.64;nan;100294.56;5069209;28;20521;-64
2021/01/27 00:19:15;;;;;;;37.03;24.93;;;;;;;1.47;nan;100289.34;5081795;28;20516;-64
2021/01/27 00:21:41;;;;;;;40.97;25.30;;;;;;;1.54;nan;100284.59;5069874;28;21062;-63
2021/01/27 00:24:08;;;;;;;37.57;24.37;;;;;;;1.57;nan;100280.03;5063987;28;20667;-64
2021/01/27 00:26:34;;;;;;;37.30;25.50;;;;;;;1.47;nan;100289.34;5073039;28;20506;-64
2021/01/27 00:29:00;;;;;;;37.47;24.20;;;;;;;1.48;nan;100289.28;5082874;28;20886;-64
2021/01/27 00:31:27;;;;;;;39.07;23.40;;;;;;;1.41;nan;100290.53;5082093;28;20502;-63
2021/01/27 00:33:54;;;;;;;44.73;25.93;;;;;;;1.37;nan;100293.41;5079022;28;20767;-64
2021/01/27 00:36:20;;;;;;;40.33;26.33;;;;;;;1.54;nan;100300.41;5061268;28;20480;-63
2021/01/27 00:38:46;;;;;;;44.23;26.37;;;;;;;1.54;nan;100292.50;5065320;28;20496;-65
2021/01/27 00:41:12;;;;;;;44.40;25.67;;;;;;;1.55;nan;100292.44;5081000;28;20510;-65
2021/01/27 00:43:38;;;;;;;49.43;28.80;;;;;;;1.59;nan;100277.31;5066003;28;20479;-64
2021/01/27 00:46:04;;;;;;;48.50;28.30;;;;;;;1.55;nan;100262.59;5061939;28;20496;-65
2021/01/27 00:48:31;;;;;;;52.00;27.73;;;;;;;1.49;nan;100269.03;5066358;28;20441;-64
2021/01/27 00:50:58;;;;;;;46.13;27.97;;;;;;;1.66;nan;100276.03;5081436;28;21195;-65
2021/01/27 00:53:24;;;;;;;38.87;23.87;;;;;;;1.59;nan;100280.78;5080515;28;20459;-64
2021/01/27 00:55:50;;;;;;;45.97;27.53;;;;;;;1.68;nan;100279.44;5061777;28;20936;-65
2021/01/27 00:58:16;;;;;;;49.80;27.60;;;;;;;1.78;nan;100271.91;5078640;28;20495;-64
2021/01/27 01:00:43;;;;;;;45.70;28.30;;;;;;;1.58;nan;100272.97;5081398;28;20512;-64
2021/01/27 01:03:10;;;;;;;49.50;28.67;;;;;;;1.71;nan;100266.09;5067652;28;20545;-64
2021/01/27 01:05:38;;;;;;;44.03;26.27;;;;;;;1.60;nan;100269.31;5060948;28;20500;-64
2021/01/27 01:08:06;;;;;;;47.67;26.70;;;;;;;1.75;nan;100270.25;5081992;28;20958;-64
2021/01/27 01:10:35;;;;;;;41.37;27.70;;;;;;;1.59;nan;100266.78;5081134;28;20502;-64
2021/01/27 01:13:01;;;;;;;45.80;25.43;;;;;;;1.79;nan;100268.31;5081010;28;20979;-64
2021/01/27 01:15:29;;;;;;;46.70;27.90;;;;;;;1.82;nan;100270.78;5081608;28;20492;-64
2021/01/27 01:17:56;;;;;;;44.70;27.40;;;;;;;1.69;nan;100266.19;5065482;28;20528;-65
2021/01/27 01:20:23;;;;;;;47.43;29.20;;;;;;;1.74;nan;100263.31;5065854;28;20451;-64
2021/01/27 01:22:51;;;;;;;48.40;27.90;;;;;;;1.76;nan;100273.78;5066006;28;20445;-65
2021/01/27 01:25:20;;;;;;;44.17;28.40;;;;;;;1.79;nan;100260.41;5071231;28;20476;-64
2021/01/27 01:27:47;;;;;;;47.50;25.97;;;;;;;1.84;nan;100258.34;5082003;28;20459;-64
2021/01/27 01:30:16;;;;;;;41.90;26.00;;;;;;;1.94;nan;100263.97;5071422;28;20473;-65
2021/01/27 01:32:43;;;;;;;41.20;26.13;;;;;;;1.92;nan;100255.31;5061557;28;20453;-64
2021/01/27 01:35:10;;;;;;;40.63;24.17;;;;;;;2.04;nan;100252.00;5072439;28;20513;-64
2021/01/27 01:37:38;;;;;;;49.73;25.20;;;;;;;1.99;nan;100259.31;5082042;28;20467;-64
2021/01/27 01:40:05;;;;;;;49.77;26.20;;;;;;;1.83;nan;100254.03;5069773;28;20460;-64
2021/01/27 01:42:32;;;;;;;45.73;25.87;;;;;;;1.92;nan;100257.94;5060671;28;20480;-64
2021/01/27 01:44:59;;;;;;;49.40;26.60;;;;;;;2.03;nan;100250.28;5070637;28;20768;-65
2021/01/27 01:47:25;;;;;;;40.57;25.50;;;;;;;1.93;nan;100249.97;5079390;28;20488;-64
2021/01/27 01:49:51;;;;;;;48.13;28.47;;;;;;;1.90;nan;100255.41;5080671;28;20448;-64
2021/01/27 01:52:18;;;;;;;43.17;24.17;;;;;;;2.12;nan;100248.91;5079975;28;20496;-64
2021/01/27 01:54:47;;;;;;;43.53;26.20;;;;;;;1.98;nan;100254.97;5063618;28;20467;-64
2021/01/27 01:57:18;;;;;;;45.63;23.83;;;;;;;2.02;nan;100249.44;5061454;28;20548;-64
2021/01/27 01:59:51;;;;;;;38.27;25.33;;;;;;;1.91;nan;100243.94;5061367;28;20492;-64
2021/01/27 02:02:18;;;;;;;34.70;21.90;;;;;;;1.94;nan;100248.16;5064837;28;20492;-65
2021/01/27 02:04:50;;;;;;;31.73;21.17;;;;;;;1.86;nan;100244.19;5061344;28;20453;-64
2021/01/27 02:07:16;;;;;;;37.47;22.93;;;;;;;1.97;nan;100238.28;5065106;28;21084;-65
2021/01/27 02:09:42;;;;;;;39.80;23.73;;;;;;;2.03;nan;100223.91;5079746;28;20448;-65
2021/01/27 02:12:28;;;;;;;36.60;21.40;;;;;;;1.97;nan;100221.63;5080300;28;20495;-65
2021/01/27 02:15:28;;;;;;;33.30;22.00;;;;;;;1.98;nan;100225.94;5062699;28;20436;-65
2021/01/27 02:18:00;;;;;;;33.73;21.60;;;;;;;1.87;nan;100223.94;5061429;28;20461;-64
2021/01/27 02:21:00;;;;;;;37.47;21.90;;;;;;;1.96;nan;100212.00;5063413;28;20484;-64
2021/01/27 02:24:09;;;;;;;32.60;20.80;;;;;;;1.84;nan;100217.06;5063009;28;20448;-64
2021/01/27 02:27:01;;;;;;;31.27;20.60;;;;;;;1.78;nan;100208.63;5080553;28;20990;-64
2021/01/27 02:29:52;;;;;;;33.13;22.30;;;;;;;1.68;nan;100208.28;5078397;28;20447;-64
2021/01/27 02:32:38;;;;;;;35.13;21.90;;;;;;;1.82;nan;100194.34;5064974;28;20476;-64
2021/01/27 02:35:11;;;;;;;38.43;21.40;;;;;;;1.83;nan;100191.63;5079369;28;20453;-63
2021/01/27 02:37:40;;;;;;;35.10;22.87;;;;;;;1.74;nan;100193.94;5065528;28;20437;-64
2021/01/27 02:40:14;;;;;;;36.90;23.33;;;;;;;1.77;nan;100199.00;5066004;28;20963;-64
2021/01/27 02:42:43;;;;;;;41.03;23.93;;;;;;;1.76;nan;100194.69;5064305;28;20441;-64
2021/01/27 02:45:13;;;;;;;31.30;20.80;;;;;;;1.61;nan;100184.03;5065554;28;20528;-64
2021/01/27 02:47:44;;;;;;;38.90;23.10;;;;;;;1.71;nan;100184.41;5065420;28;20466;-64
2021/01/27 02:50:14;;;;;;;41.47;22.37;;;;;;;1.69;nan;100179.22;5064394;28;20441;-64
2021/01/27 02:52:45;;;;;;;37.53;24.40;;;;;;;1.75;nan;100182.44;5065146;28;20476;-64
2021/01/27 02:55:14;;;;;;;37.87;24.33;;;;;;;1.68;nan;100182.81;5081589;28;20509;-64
2021/01/27 02:57:46;;;;;;;36.40;23.00;;;;;;;1.70;nan;100174.78;5083780;28;20493;-64
2021/01/27 03:00:20;;;;;;;39.73;23.77;;;;;;;1.63;nan;100163.75;5083040;28;20476;-64
2021/01/27 03:02:50;;;;;;;39.77;22.73;;;;;;;1.71;nan;100159.84;5066055;28;20480;-64
2021/01/27 03:05:20;;;;;;;40.30;24.03;;;;;;;1.75;nan;100145.53;5063155;28;20979;-64
2021/01/27 03:07:50;;;;;;;34.87;22.30;;;;;;;1.82;nan;100152.16;5082595;28;20471;-64
2021/01/27 03:10:20;;;;;;;31.63;21.20;;;;;;;1.72;nan;100148.34;5083637;28;20483;-64
2021/01/27 03:12:47;;;;;;;37.40;22.67;;;;;;;1.75;nan;100146.38;5066749;28;20463;-64
2021/01/27 03:15:14;;;;;;;34.10;23.30;;;;;;;1.80;nan;100160.16;5078492;28;20436;-64
2021/01/27 03:17:42;;;;;;;36.33;22.63;;;;;;;1.87;nan;100148.34;5083894;28;20443;-64
2021/01/27 03:20:11;;;;;;;33.77;22.93;;;;;;;1.64;nan;100138.25;5082486;28;20456;-64
2021/01/27 03:22:42;;;;;;;37.03;22.50;;;;;;;1.83;nan;100138.91;5069506;28;20507;-64
2021/01/27 03:25:12;;;;;;;36.10;23.00;;;;;;;1.81;nan;100138.13;5063976;28;20456;-64
2021/01/27 03:27:41;;;;;;;33.10;21.57;;;;;;;1.70;nan;100135.25;5065567;28;20454;-64
2021/01/27 03:30:11;;;;;;;31.30;20.03;;;;;;;1.68;nan;100130.09;5062833;28;20956;-64
2021/01/27 03:32:42;;;;;;;27.40;18.30;;;;;;;1.81;nan;100134.66;5042472;28;20465;-64
2021/01/27 03:35:11;;;;;;;41.83;20.27;;;;;;;1.78;nan;100138.31;5060004;28;20457;-64
2021/01/27 03:37:44;;;;;;;30.60;19.33;;;;;;;1.80;nan;100144.34;5048064;28;20442;-64
2021/01/27 03:40:12;;;;;;;30.23;20.30;;;;;;;1.81;nan;100135.50;5043701;28;20511;-64
2021/01/27 03:42:44;;;;;;;29.77;19.57;;;;;;;1.72;nan;100125.50;5043113;28;20983;-64
2021/01/27 03:45:11;;;;;;;30.77;19.80;;;;;;;1.77;nan;100117.31;5053473;28;20477;-64
2021/01/27 03:47:41;;;;;;;29.30;18.23;;;;;;;1.68;nan;100116.03;5063935;28;20481;-64
2021/01/27 03:50:11;;;;;;;31.53;18.30;;;;;;;1.68;nan;100126.59;5062184;28;20483;-64
2021/01/27 03:52:40;;;;;;;29.33;18.90;;;;;;;1.69;nan;100115.13;5063680;28;20463;-64
2021/01/27 03:55:16;;;;;;;32.73;18.50;;;;;;;1.73;nan;100116.63;5062843;28;20963;-64
2021/01/27 03:57:46;;;;;;;32.17;19.17;;;;;;;1.83;nan;100109.91;5063138;28;20927;-64
2021/01/27 04:00:13;;;;;;;31.57;18.63;;;;;;;1.80;nan;100117.97;5062314;28;20891;-64
2021/01/27 04:02:39;;;;;;;25.87;16.87;;;;;;;1.70;nan;100116.81;5063215;28;20445;-64
2021/01/27 04:05:07;;;;;;;30.33;16.80;;;;;;;1.69;nan;100117.75;5061684;28;20876;-64
2021/01/27 04:07:33;;;;;;;26.70;17.60;;;;;;;1.64;nan;100119.81;5063280;28;20484;-64
2021/01/27 04:10:00;;;;;;;29.70;17.43;;;;;;;1.72;nan;100114.94;5061612;28;20452;-65
2021/01/27 04:12:26;;;;;;;26.17;16.00;;;;;;;1.68;nan;100118.69;5053189;28;20477;-64
2021/01/27 04:14:52;;;;;;;26.07;18.57;;;;;;;1.68;nan;100122.19;5050941;28;20448;-64
2021/01/27 04:17:27;;;;;;;25.70;15.50;;;;;;;1.62;nan;100113.78;5053512;28;20513;-63
2021/01/27 04:19:53;;;;;;;23.90;15.30;;;;;;;1.64;nan;100104.84;5055830;28;20564;-64
2021/01/27 04:22:20;;;;;;;27.57;15.50;;;;;;;1.61;nan;100106.78;5042923;28;20501;-64
2021/01/27 04:24:46;;;;;;;24.40;14.83;;;;;;;1.64;nan;100112.72;5047458;28;20473;-64
2021/01/27 04:27:13;;;;;;;22.00;15.73;;;;;;;1.57;nan;100106.13;5062538;28;20491;-65
2021/01/27 04:29:40;;;;;;;20.40;14.23;;;;;;;1.53;nan;100101.97;5062504;28;20436;-64
2021/01/27 04:32:06;;;;;;;21.50;14.83;;;;;;;1.50;nan;100102.13;5062576;28;20587;-64
2021/01/27 04:34:33;;;;;;;21.33;13.53;;;;;;;1.65;nan;100103.91;5061596;28;20475;-65
2021/01/27 04:37:00;;;;;;;18.93;13.27;;;;;;;1.53;nan;100090.56;5062116;28;20469;-64
2021/01/27 04:39:26;;;;;;;19.03;13.90;;;;;;;1.47;nan;100099.66;5062449;28;20484;-64
2021/01/27 04:41:53;;;;;;;21.20;12.90;;;;;;;1.59;nan;100088.44;5046343;28;20469;-64
2021/01/27 04:44:20;;;;;;;17.03;12.27;;;;;;;1.47;nan;100083.84;5044070;28;20557;-64
2021/01/27 04:46:58;;;;;;;18.53;11.77;;;;;;;1.60;nan;100082.25;5041640;28;20494;-64
2021/01/27 04:49:26;;;;;;;16.47;11.70;;;;;;;1.58;nan;100083.25;5044494;28;20489;-64
2021/01/27 04:51:56;;;;;;;16.40;11.60;;;;;;;1.59;nan;100082.31;5041909;28;20477;-64
2021/01/27 04:54:33;;;;;;;15.90;11.33;;;;;;;1.56;nan;100077.22;5053012;28;20498;-64
2021/01/27 04:57:18;;;;;;;15.70;10.50;;;;;;;1.57;nan;100078.94;5061659;28;20476;-64
2021/01/27 05:00:04;;;;;;;13.83;9.93;;;;;;;1.56;nan;100080.69;5044098;28;20536;-64
2021/01/27 05:02:38;;;;;;;17.43;10.13;;;;;;;1.57;nan;100068.38;5061792;28;20461;-64
2021/01/27 05:05:08;;;;;;;12.53;10.20;;;;;;;1.63;nan;100068.03;5060172;28;20457;-64
2021/01/27 05:07:47;;;;;;;13.00;9.30;;;;;;;1.61;nan;100065.47;5061236;28;20440;-64
2021/01/27 05:10:15;;;;;;;16.70;9.67;;;;;;;1.60;nan;100068.22;5043931;28;20453;-64
2021/01/27 05:12:47;;;;;;;12.50;9.10;;;;;;;1.59;nan;100061.25;5061848;28;20453;-64
2021/01/27 05:15:14;;;;;;;11.03;8.83;;;;;;;1.54;nan;100065.91;5044586;28;20476;-64
2021/01/27 05:17:42;;;;;;;14.70;9.30;;;;;;;1.61;nan;100062.00;5059848;28;20468;-64
2021/01/27 05:20:10;;;;;;;19.73;8.00;;;;;;;1.64;nan;100059.19;5058515;28;20511;-64
2021/01/27 05:22:36;;;;;;;12.13;8.93;;;;;;;1.64;nan;100053.91;5062003;28;20453;-64
2021/01/27 05:25:05;;;;;;;15.30;8.73;;;;;;;1.62;nan;100055.81;5054224;28;20450;-63
2021/01/27 05:27:34;;;;;;;15.47;8.93;;;;;;;1.55;nan;100046.56;5060110;28;21334;-63
2021/01/27 05:30:04;;;;;;;10.43;7.50;;;;;;;1.50;nan;100046.81;5048149;28;20454;-63
2021/01/27 05:32:47;;;;;;;12.10;8.80;;;;;;;1.44;nan;100045.38;5041461;28;20465;-63
2021/01/27 05:35:27;;;;;;;9.60;8.27;;;;;;;1.40;nan;100038.56;5042131;28;20459;-64
2021/01/27 05:37:54;;;;;;;12.30;9.93;;;;;;;1.47;nan;100039.06;5061571;28;20436;-64
2021/01/27 05:40:26;;;;;;;11.87;8.77;;;;;;;1.48;nan;100033.72;5066076;28;20862;-64
2021/01/27 05:42:53;;;;;;;10.87;7.90;;;;;;;1.38;nan;100026.44;5080639;28;20819;-64
2021/01/27 05:45:41;;;;;;;9.87;8.70;;;;;;;1.41;nan;100026.28;5081006;28;20475;-64
2021/01/27 05:48:22;;;;;;;13.17;9.17;;;;;;;1.43;nan;100022.59;5079255;28;20583;-65
2021/01/27 05:50:50;;;;;;;15.43;9.17;;;;;;;1.50;nan;100031.00;5059877;28;20473;-64
2021/01/27 05:53:17;;;;;;;11.63;8.23;;;;;;;1.43;nan;100034.94;5064309;28;20448;-64
2021/01/27 05:55:59;;;;;;;14.90;9.60;;;;;;;1.42;nan;100025.31;5078929;28;20480;-64
2021/01/27 05:58:25;;;;;;;10.90;8.03;;;;;;;1.49;nan;100034.56;5079251;28;20484;-64
2021/01/27 06:00:52;;;;;;;12.07;7.17;;;;;;;1.41;nan;100026.28;5079862;28;20495;-63
2021/01/27 06:03:22;;;;;;;9.70;7.40;;;;;;;1.30;nan;100018.97;5080589;28;20483;-64
2021/01/27 06:05:49;;;;;;;9.57;6.67;;;;;;;1.41;nan;100026.28;5060105;28;20483;-64
2021/01/27 06:08:17;;;;;;;8.57;6.67;;;;;;;1.35;nan;100014.28;5061206;28;20510;-64
2021/01/27 06:10:44;;;;;;;8.70;7.63;;;;;;;1.33;nan;100010.88;5061533;28;20468;-65
2021/01/27 06:13:24;;;;;;;8.00;6.60;;;;;;;1.25;nan;100013.09;5077448;28;20483;-65
2021/01/27 06:15:51;;;;;;;7.90;6.80;;;;;;;1.42;nan;100001.59;5078874;28;20495;-65
2021/01/27 06:18:23;;;;;;;11.77;7.10;;;;;;;1.35;nan;99993.22;5077309;28;20445;-64
2021/01/27 06:20:49;;;;;;;8.70;7.47;;;;;;;1.26;nan;99993.75;5075138;28;20586;-64
2021/01/27 06:23:32;;;;;;;11.07;6.77;;;;;;;1.29;nan;99994.41;5068399;28;20487;-64
2021/01/27 06:26:24;;;;;;;12.27;6.60;;;;;;;1.07;nan;99989.50;5060835;28;20836;-65
2021/01/27 06:29:07;;;;;;;9.73;6.90;;;;;;;1.35;nan;99990.56;5066054;28;20494;-64
2021/01/27 06:31:52;;;;;;;12.80;8.17;;;;;;;1.35;nan;99995.00;5073854;28;21057;-65
2021/01/27 06:34:43;;;;;;;8.90;6.90;;;;;;;1.33;nan;99992.44;5061334;28;20448;-65
2021/01/27 06:37:19;;;;;;;10.00;7.97;;;;;;;1.32;nan;99988.13;5059295;28;20552;-65
2021/01/27 06:40:03;;;;;;;8.60;6.10;;;;;;;1.30;nan;99987.34;5065250;28;20514;-65
2021/01/27 06:42:46;;;;;;;8.27;6.60;;;;;;;1.37;nan;99983.47;5078455;28;20990;-63
2021/01/27 06:45:20;;;;;;;9.43;6.30;;;;;;;1.25;nan;99969.19;5068874;28;21058;-66
2021/01/27 06:48:08;;;;;;;12.50;7.63;;;;;;;1.28;nan;99960.25;5060484;28;20425;-64
2021/01/27 06:50:46;;;;;;;9.27;6.23;;;;;;;1.22;nan;99960.63;5069714;28;20503;-64
2021/01/27 06:53:25;;;;;;;8.43;6.90;;;;;;;1.16;nan;99955.69;5078047;28;20455;-64
2021/01/27 06:56:09;;;;;;;6.73;5.80;;;;;;;1.18;nan;99945.94;5058684;28;20495;-64
2021/01/27 06:59:03;;;;;;;8.50;5.93;;;;;;;1.23;nan;99946.50;5076461;28;20593;-64
2021/01/27 07:02:03;;;;;;;6.70;5.53;;;;;;;1.25;nan;99947.25;5077765;28;21416;-65
2021/01/27 07:04:52;;;;;;;10.27;5.83;;;;;;;1.27;nan;99953.31;4991130;28;20462;-65
2021/01/27 07:07:42;;;;;;;7.20;6.37;;;;;;;1.41;nan;99937.56;4984527;28;20616;-65
2021/01/27 07:10:28;;;;;;;8.50;6.33;;;;;;;1.37;nan;99936.03;4980712;28;20452;-65
2021/01/27 07:13:06;;;;;;;7.10;5.37;;;;;;;1.52;nan;99938.72;4997834;28;20459;-64
2021/01/27 07:15:49;;;;;;;7.50;6.77;;;;;;;1.30;nan;99930.28;5000059;28;20540;-65
2021/01/27 07:19:00;;;;;;;8.20;6.50;;;;;;;1.19;nan;99922.13;4992953;28;20491;-64
2021/01/27 07:21:29;;;;;;;7.17;5.00;;;;;;;1.23;nan;99920.19;4998351;28;20487;-64
2021/01/27 07:24:02;;;;;;;12.87;5.97;;;;;;;1.28;nan;99916.34;4999084;28;20459;-65
2021/01/27 07:26:33;;;;;;;10.07;6.07;;;;;;;1.25;nan;99897.22;4988122;28;20484;-64
2021/01/27 07:29:02;;;;;;;7.83;6.70;;;;;;;1.16;nan;99900.41;4992384;28;20455;-64
2021/01/27 07:31:31;;;;;;;7.47;6.50;;;;;;;1.23;nan;99894.72;4988908;28;20483;-64
2021/01/27 07:34:05;;;;;;;8.97;6.60;;;;;;;1.18;nan;99902.03;4989570;28;20456;-63
2021/01/27 07:36:44;;;;;;;6.60;5.60;;;;;;;1.30;nan;99896.03;4988502;28;20503;-64
2021/01/27 07:39:16;;;;;;;7.30;6.13;;;;;;;1.16;nan;99884.63;4996298;28;20479;-63
2021/01/27 07:41:57;;;;;;;7.20;6.13;;;;;;;1.22;nan;99892.16;5070732;28;20494;-63
2021/01/27 07:44:24;;;;;;;7.03;6.33;;;;;;;1.16;nan;99874.91;5064401;28;20476;-65
2021/01/27 07:47:00;;;;;;;10.80;7.10;;;;;;;1.26;nan;99883.97;5073108;28;20479;-63
2021/01/27 07:49:38;;;;;;;8.40;6.80;;;;;;;1.31;nan;99871.38;5070881;28;20445;-63
2021/01/27 07:52:22;;;;;;;8.90;6.63;;;;;;;1.25;nan;99877.03;5071962;28;20499;-63
2021/01/27 07:54:54;;;;;;;7.93;6.43;;;;;;;1.31;nan;99879.28;5071798;28;20444;-63
2021/01/27 07:57:31;;;;;;;9.43;6.10;;;;;;;1.43;nan;99874.25;5071371;28;20491;-63
2021/01/27 08:00:04;;;;;;;8.60;7.40;;;;;;;1.22;nan;99871.09;5073587;28;20508;-63
2021/01/27 08:02:33;;;;;;;8.13;5.87;;;;;;;1.22;nan;99877.22;5068749;28;20465;-63
2021/01/27 08:05:03;;;;;;;10.00;6.10;;;;;;;1.47;nan;99868.69;5069410;28;20460;-63
2021/01/27 08:07:33;;;;;;;11.20;6.97;;;;;;;1.35;nan;99881.75;5074580;28;20536;-65
2021/01/27 08:10:09;;;;;;;11.47;7.30;;;;;;;1.39;nan;99881.47;5077337;28;20475;-66
2021/01/27 08:12:39;;;;;;;8.30;6.93;;;;;;;1.38;nan;99877.13;5071696;28;20468;-64
2021/01/27 08:15:10;;;;;;;8.60;6.80;;;;;;;1.43;nan;99882.16;5065429;28;20757;-64
2021/01/27 08:18:01;;;;;;;7.90;6.20;;;;;;;1.36;nan;99881.66;5077689;28;20448;-63
2021/01/27 08:20:29;;;;;;;8.50;6.00;;;;;;;1.31;nan;99879.28;5062416;28;20479;-64
2021/01/27 08:22:56;;;;;;;10.80;7.60;;;;;;;1.31;nan;99883.72;5066116;28;20468;-62
2021/01/27 08:25:50;;;;;;;7.70;6.90;;;;;;;1.30;nan;99885.50;5075672;28;20436;-64
2021/01/27 08:28:21;;;;;;;10.90;7.10;;;;;;;1.30;nan;99890.78;5074163;28;20451;-63
2021/01/27 08:31:23;;;;;;;10.33;6.90;;;;;;;1.39;nan;99876.22;5078838;28;20514;-65
2021/01/27 08:33:55;;;;;;;10.47;7.57;;;;;;;1.31;nan;99876.66;5077526;28;20475;-64
2021/01/27 08:36:24;;;;;;;12.80;5.83;;;;;;;1.33;nan;99887.09;5065383;28;20479;-64
2021/01/27 08:39:06;;;;;;;8.27;6.73;;;;;;;1.53;nan;99882.41;5067838;28;20488;-65
2021/01/27 08:41:43;;;;;;;7.07;6.27;;;;;;;1.46;nan;99872.28;5072941;28;20480;-63
2021/01/27 08:44:13;;;;;;;10.93;6.70;;;;;;;1.41;nan;99865.59;5076630;28;20459;-66
2021/01/27 08:46:44;;;;;;;10.00;5.80;;;;;;;1.16;nan;99871.44;5070311;28;20495;-66
2021/01/27 08:49:11;;;;;;;8.00;6.83;;;;;;;1.11;nan;99869.94;5073803;28;20440;-66
2021/01/27 08:51:49;;;;;;;8.23;7.33;;;;;;;1.08;nan;99871.91;5071791;28;20483;-65
2021/01/27 08:54:29;;;;;;;11.87;6.47;;;;;;;0.92;nan;99861.41;5074035;28;20766;-63
2021/01/27 08:57:16;;;;;;;7.10;6.40;;;;;;;0.81;nan;99859.38;5076742;28;21041;-65
2021/01/27 08:59:54;;;;;;;7.43;6.10;;;;;;;0.83;nan;99860.16;5076825;28;20502;-65
2021/01/27 09:02:48;;;;;;;8.33;6.77;;;;;;;1.03;nan;99871.31;5073182;28;20826;-65
2021/01/27 09:05:38;;;;;;;10.50;7.10;;;;;;;0.77;nan;99864.94;5076308;28;20927;-67
2021/01/27 09:08:25;;;;;;;8.30;6.80;;;;;;;0.78;nan;99867.44;5070532;28;20459;-67
2021/01/27 09:10:54;;;;;;;8.50;6.57;;;;;;;0.72;nan;99866.03;5075080;28;20479;-67
2021/01/27 09:13:27;;;;;;;8.97;7.70;;;;;;;0.75;nan;99867.66;5076707;28;20459;-65
2021/01/27 09:15:57;;;;;;;8.50;6.70;;;;;;;0.49;nan;99866.50;5072581;28;20480;-65
2021/01/27 09:18:24;;;;;;;10.77;7.43;;;;;;;0.65;nan;99863.84;5070429;28;20449;-66
2021/01/27 09:20:51;;;;;;;9.93;7.80;;;;;;;0.65;nan;99861.22;5066880;28;20970;-67
2021/01/27 09:23:19;;;;;;;14.07;8.00;;;;;;;0.49;nan;99866.50;5071469;28;20460;-67
2021/01/27 09:25:47;;;;;;;12.10;9.00;;;;;;;0.45;nan;99864.94;5077476;28;20496;-67
2021/01/27 09:28:21;;;;;;;11.20;8.40;;;;;;;0.58;nan;99862.50;5073772;28;20459;-67
2021/01/27 09:30:48;;;;;;;8.52;7.63;;;;;;;0.63;nan;99856.03;5068515;28;20477;-67
2021/01/27 09:33:17;;;;;;;9.90;8.10;;;;;;;0.63;nan;99858.66;5070066;28;20210;-63
2021/01/27 09:35:46;;;;;;;12.97;9.80;;;;;;;0.73;nan;99856.38;5075862;28;20472;-63
2021/01/27 09:38:14;;;;;;;12.00;9.37;;;;;;;0.51;nan;99856.72;5067455;28;20475;-65
2021/01/27 09:40:43;;;;;;;14.80;9.77;;;;;;;0.65;nan;99856.78;5073061;28;20498;-64
2021/01/27 09:43:12;;;;;;;11.82;9.00;;;;;;;0.57;nan;99861.63;5075552;28;20966;-65
2021/01/27 09:45:41;;;;;;;12.27;9.17;;;;;;;0.59;nan;99857.16;5075315;28;20251;-65
2021/01/27 09:48:10;;;;;;;10.23;9.13;;;;;;;0.67;nan;99856.72;5068774;28;20447;-64
2021/01/27 09:50:38;;;;;;;11.17;8.90;;;;;;;0.84;nan;99861.00;5068049;28;20508;-64
2021/01/27 09:53:06;;;;;;;14.10;10.07;;;;;;;0.93;nan;99861.31;5063087;28;20443;-65
2021/01/27 09:55:32;;;;;;;17.70;11.40;;;;;;;0.88;nan;99859.88;5079142;28;20982;-66
2021/01/27 09:58:03;;;;;;;13.60;11.13;;;;;;;0.94;nan;99856.91;5068610;28;21184;-64
2021/01/27 10:00:32;;;;;;;13.13;10.03;;;;;;;0.79;nan;99856.00;5077163;28;20494;-67
2021/01/27 10:03:20;;;;;;;12.02;9.52;;;;;;;0.90;nan;99858.00;5068925;28;20655;-67
2021/01/27 10:05:46;;;;;;;9.77;8.70;;;;;;;1.00;nan;99855.72;5076376;28;20243;-65
2021/01/27 10:08:17;;;;;;;11.90;9.40;;;;;;;1.00;nan;99853.06;5068431;28;20887;-66
2021/01/27 10:10:44;;;;;;;14.33;10.33;;;;;;;0.94;nan;99854.28;5070831;28;20472;-67
2021/01/27 10:13:11;;;;;;;11.50;8.90;;;;;;;0.94;nan;99844.59;5070193;28;20844;-66
2021/01/27 10:15:38;;;;;;;11.53;9.60;;;;;;;0.94;nan;99847.22;5068807;28;20495;-66
2021/01/27 10:18:07;;;;;;;11.47;8.87;;;;;;;1.28;nan;99844.38;5069807;28;20474;-66
2021/01/27 10:20:36;;;;;;;9.87;8.23;;;;;;;1.25;nan;99837.53;5066855;28;20480;-66
2021/01/27 10:23:04;;;;;;;12.23;9.10;;;;;;;1.52;nan;99844.69;5065403;28;20456;-66
2021/01/27 10:25:34;;;;;;;9.57;7.20;;;;;;;1.57;nan;99837.38;5066355;28;20498;-66
2021/01/27 10:28:18;;;;;;;9.93;7.97;;;;;;;1.70;nan;99837.44;5069789;28;20444;-66
2021/01/27 10:30:52;;;;;;;8.20;6.80;;;;;;;1.39;nan;99828.81;5067421;28;20503;-65
2021/01/27 10:33:40;;;;;;;7.97;7.17;;;;;;;1.28;nan;99816.25;5071494;28;20460;-67
2021/01/27 10:36:32;;;;;;;8.13;6.23;;;;;;;1.32;nan;99811.69;5060653;28;20769;-65
2021/01/27 10:39:19;;;;;;;6.63;5.93;;;;;;;1.28;nan;99808.34;5071202;28;20506;-66
2021/01/27 10:41:47;;;;;;;7.27;6.57;;;;;;;1.29;nan;99811.84;5070230;28;20477;-64
2021/01/27 10:44:26;;;;;;;7.23;6.37;;;;;;;1.43;nan;99806.59;5067145;28;20513;-64
2021/01/27 10:46:54;;;;;;;6.87;5.70;;;;;;;1.34;nan;99815.06;5080238;28;20477;-64
2021/01/27 10:49:20;;;;;;;7.37;6.70;;;;;;;1.11;nan;99806.75;5082518;28;20497;-65
2021/01/27 10:51:48;;;;;;;7.10;6.50;;;;;;;0.98;nan;99815.47;5074531;28;20490;-65
2021/01/27 10:54:18;;;;;;;6.13;5.57;;;;;;;1.21;nan;99814.94;5074147;28;20485;-65
2021/01/27 10:56:44;;;;;;;5.73;5.03;;;;;;;1.04;nan;99815.97;5072020;28;20500;-65
2021/01/27 10:59:11;;;;;;;7.10;6.20;;;;;;;1.08;nan;99814.84;5082553;28;20986;-65
2021/01/27 11:01:37;;;;;;;6.27;5.67;;;;;;;1.13;nan;99815.41;5074407;28;20978;-65
2021/01/27 11:04:03;;;;;;;5.70;5.20;;;;;;;1.28;nan;99818.88;5070423;28;21049;-64
2021/01/27 11:06:29;;;;;;;5.37;4.83;;;;;;;1.08;nan;99808.72;5074238;28;20473;-66
2021/01/27 11:08:56;;;;;;;5.80;4.90;;;;;;;1.10;nan;99822.66;5073074;28;20515;-64
2021/01/27 11:11:23;;;;;;;9.50;4.80;;;;;;;1.03;nan;99810.78;5074106;28;20471;-65
2021/01/27 11:13:49;;;;;;;6.17;5.60;;;;;;;1.13;nan;99814.56;5074386;28;20932;-65
2021/01/27 11:16:16;;;;;;;7.63;6.30;;;;;;;1.08;nan;99799.03;5071544;28;20513;-65
2021/01/27 11:18:42;;;;;;;6.67;6.03;;;;;;;1.28;nan;99808.34;5071654;28;20453;-63
2021/01/27 11:21:08;;;;;;;7.57;6.77;;;;;;;1.23;nan;99802.56;5073511;28;20472;-63
2021/01/27 11:23:35;;;;;;;8.50;6.03;;;;;;;1.10;nan;99801.56;5074301;28;20462;-64
2021/01/27 11:26:02;;;;;;;6.40;5.70;;;;;;;1.17;nan;99787.09;5072994;28;20487;-64
2021/01/27 11:28:29;;;;;;;6.00;5.40;;;;;;;1.23;nan;99794.66;5066131;28;20452;-64
2021/01/27 11:30:55;;;;;;;6.30;5.70;;;;;;;1.38;nan;99792.03;5078834;28;20565;-63
2021/01/27 11:33:22;;;;;;;6.33;5.73;;;;;;;1.34;nan;99790.50;5081661;28;20751;-64
2021/01/27 11:35:49;;;;;;;6.87;6.27;;;;;;;1.16;nan;99769.59;5076326;28;20532;-65
2021/01/27 11:38:16;;;;;;;5.33;4.83;;;;;;;1.47;nan;99771.22;5082711;28;20501;-64
2021/01/27 11:40:42;;;;;;;6.53;5.93;;;;;;;1.57;nan;99770.66;5079672;28;20475;-64
2021/01/27 11:43:09;;;;;;;6.20;5.60;;;;;;;1.49;nan;99777.25;5081113;28;20450;-63
2021/01/27 11:45:35;;;;;;;8.07;5.80;;;;;;;1.58;nan;99767.06;5078407;28;20468;-64
2021/01/27 11:48:02;;;;;;;6.47;5.80;;;;;;;1.41;nan;99760.22;5081648;28;20440;-64
2021/01/27 11:50:30;;;;;;;6.33;5.73;;;;;;;1.65;nan;99763.09;5079639;28;20842;-64
2021/01/27 11:52:57;;;;;;;5.90;5.40;;;;;;;1.38;nan;99763.88;5070758;28;20456;-64
2021/01/27 11:55:23;;;;;;;5.97;5.47;;;;;;;1.45;nan;99751.19;5079613;28;22147;-64
2021/01/27 11:57:50;;;;;;;6.10;5.60;;;;;;;1.38;nan;99749.88;5069338;28;20448;-64
2021/01/27 12:00:20;;;;;;;7.27;6.30;;;;;;;1.59;nan;99745.91;5062881;28;20498;-64
2021/01/27 12:02:46;;;;;;;5.80;5.30;;;;;;;1.55;nan;99736.50;5077388;28;21015;-64
2021/01/27 12:05:13;;;;;;;5.17;4.77;;;;;;;1.61;nan;99724.72;5069287;28;20576;-64
2021/01/27 12:07:39;;;;;;;5.50;5.00;;;;;;;1.85;nan;99731.06;5064717;28;20464;-65
2021/01/27 12:10:06;;;;;;;6.23;5.40;;;;;;;1.56;nan;99727.63;5065686;28;20473;-65